createdAt,value
2022-09-15T00:00:04.296Z,1.84
2022-09-15T00:05:04.324Z,1.68
2022-09-15T00:07:34.337Z,1.55
2022-09-15T00:10:04.373Z,1.83
2022-09-15T00:15:04.420Z,1.8
2022-09-15T00:17:34.420Z,2.11
2022-09-15T00:20:04.505Z,2.02
2022-09-15T00:22:34.504Z,1.99
2022-09-15T00:25:04.494Z,2.14
2022-09-15T00:27:34.518Z,2.33
2022-09-15T00:30:04.624Z,2.34
2022-09-15T00:32:34.591Z,2.56
2022-09-15T00:37:34.611Z,2.02
2022-09-15T00:40:04.692Z,1.85
2022-09-15T00:45:07.701Z,1.99
2022-09-15T00:47:34.721Z,1.96
2022-09-15T00:50:04.740Z,2
2022-09-15T00:55:04.783Z,2.06
2022-09-15T00:57:34.822Z,2.33
2022-09-15T01:00:04.871Z,2.43
2022-09-15T01:02:34.970Z,2.57
2022-09-15T01:05:04.864Z,2.39
2022-09-15T01:07:34.902Z,2
2022-09-15T01:10:04.948Z,2.66
2022-09-15T01:12:34.965Z,2.62
2022-09-15T01:15:04.991Z,3.04
2022-09-15T01:22:35.033Z,2.99
2022-09-15T01:25:05.066Z,2.74
2022-09-15T01:27:41.494Z,2.36
2022-09-15T01:30:05.101Z,2.5
2022-09-15T01:32:35.125Z,2.5
2022-09-15T01:37:35.166Z,2.59
2022-09-15T01:40:05.272Z,2.73
2022-09-15T01:45:05.295Z,2.79
2022-09-15T01:47:35.279Z,2.65
2022-09-15T01:55:05.369Z,2.66
2022-09-15T01:57:35.390Z,2.86
2022-09-15T02:00:05.466Z,3.25
2022-09-15T02:02:35.483Z,2.76
2022-09-15T02:05:05.452Z,2.66
2022-09-15T02:10:05.516Z,2.57
2022-09-15T02:12:35.519Z,2.73
2022-09-15T02:20:05.606Z,3.14
2022-09-15T02:25:05.636Z,2.95
2022-09-15T02:27:35.662Z,3.08
2022-09-15T02:32:35.764Z,2.65
2022-09-15T02:35:05.746Z,3.02
2022-09-15T02:37:35.774Z,2.95
2022-09-15T02:40:05.885Z,2.62
2022-09-15T02:45:05.835Z,3
2022-09-15T02:52:35.920Z,2.36
2022-09-15T02:55:05.937Z,2.36
2022-09-15T02:57:36.120Z,2.51
2022-09-15T03:02:36.001Z,2.73
2022-09-15T03:07:36.053Z,2.87
2022-09-15T03:10:06.087Z,2.76
2022-09-15T03:12:36.089Z,2.63
2022-09-15T03:15:06.102Z,2.72
2022-09-15T03:22:36.196Z,2.21
2022-09-15T03:25:06.217Z,1.92
2022-09-15T03:27:36.224Z,1.84
2022-09-15T03:32:36.270Z,2.16
2022-09-15T03:35:06.313Z,1.82
2022-09-15T03:37:36.321Z,1.96
2022-09-15T03:42:36.367Z,1.84
2022-09-15T03:45:06.401Z,1.59
2022-09-15T03:50:06.453Z,1.4
2022-09-15T03:55:06.483Z,1.43
2022-09-15T03:57:36.515Z,1.44
2022-09-15T04:00:07.038Z,1.4
2022-09-15T04:05:06.575Z,1.34
2022-09-15T04:07:36.601Z,1.55
2022-09-15T04:12:36.662Z,1.58
2022-09-15T04:15:06.677Z,1.57
2022-09-15T04:17:36.713Z,1.71
2022-09-15T04:22:36.771Z,1.19
2022-09-15T04:25:06.784Z,1.03
2022-09-15T04:27:36.811Z,1.08
2022-09-15T04:32:36.869Z,1.1
2022-09-15T04:35:06.859Z,1.12
2022-09-15T04:37:36.888Z,1.13
2022-09-15T04:42:37.013Z,0.9
2022-09-15T04:50:07.012Z,1.45
2022-09-15T04:55:07.035Z,1.5
2022-09-15T04:57:37.079Z,2.57
2022-09-15T05:00:07.118Z,2.59
2022-09-15T05:05:07.160Z,1.76
2022-09-15T05:10:07.181Z,1.4
2022-09-15T05:15:07.243Z,1.38
2022-09-15T05:17:37.267Z,1.48
2022-09-15T05:20:07.287Z,1.46
2022-09-15T05:22:41.500Z,1.45
2022-09-15T05:25:07.325Z,1.38
2022-09-15T05:30:34.846Z,1.63
2022-09-15T05:32:37.398Z,1.34
2022-09-15T05:37:37.442Z,1.21
2022-09-15T05:45:07.546Z,1.45
2022-09-15T05:47:37.540Z,1.29
2022-09-15T05:50:07.568Z,1.57
2022-09-15T05:52:37.589Z,1.84
2022-09-15T05:55:07.613Z,2.03
2022-09-15T05:57:37.628Z,2.3
2022-09-15T06:00:07.670Z,2.08
2022-09-15T06:02:37.748Z,2.03
2022-09-15T06:07:37.741Z,1.88
2022-09-15T06:10:07.746Z,2.35
2022-09-15T06:12:37.767Z,2.31
2022-09-15T06:15:07.805Z,1.81
2022-09-15T06:17:37.819Z,1.68
2022-09-15T06:20:07.850Z,1.97
2022-09-15T06:22:37.874Z,1.78
2022-09-15T06:27:37.919Z,1.69
2022-09-15T06:30:07.940Z,1.37
2022-09-15T06:32:37.976Z,1.87
2022-09-15T06:35:31.441Z,1.63
2022-09-15T06:37:38.021Z,1.4
2022-09-15T06:40:08.095Z,1.33
2022-09-15T06:45:08.075Z,1.38
2022-09-15T06:47:38.112Z,1.17
2022-09-15T06:50:08.123Z,1.29
2022-09-15T06:52:38.146Z,1.3
2022-09-15T06:55:08.183Z,1.08
2022-09-15T07:00:08.216Z,1.1
2022-09-15T07:02:38.343Z,1.06
2022-09-15T07:05:08.271Z,1.05
2022-09-15T07:07:38.278Z,1.21
2022-09-15T07:12:38.353Z,1.05
2022-09-15T07:15:08.361Z,1.01
2022-09-15T07:17:38.382Z,1.05
2022-09-15T07:20:08.401Z,0.92
2022-09-15T07:25:08.476Z,0.81
2022-09-15T07:27:38.479Z,0.74
2022-09-15T07:35:08.552Z,0.82
2022-09-15T07:37:38.564Z,0.71
2022-09-15T07:40:08.630Z,0.76
2022-09-15T07:42:38.613Z,0.78
2022-09-15T07:45:08.634Z,0.8
2022-09-15T07:47:38.674Z,0.89
2022-09-15T07:50:08.674Z,0.85
2022-09-15T07:55:08.761Z,0.68
2022-09-15T07:57:38.740Z,0.68
2022-09-15T08:00:08.780Z,0.64
2022-09-15T08:02:38.813Z,0.72
2022-09-15T08:05:08.820Z,0.8
2022-09-15T08:07:38.847Z,0.69
2022-09-15T08:10:08.876Z,1.12
2022-09-15T08:12:38.904Z,0.81
2022-09-15T08:15:08.930Z,1.04
2022-09-15T08:17:38.949Z,0.88
2022-09-15T08:20:08.963Z,0.65
2022-09-15T08:22:38.990Z,0.54
2022-09-15T08:25:09.004Z,0.51
2022-09-15T08:27:39.027Z,0.62
2022-09-15T08:30:09.057Z,0.5
2022-09-15T08:32:39.082Z,0.64
2022-09-15T08:35:09.108Z,0.56
2022-09-15T08:37:39.121Z,0.62
2022-09-15T08:40:09.224Z,0.48
2022-09-15T08:42:44.212Z,1.43
2022-09-15T08:45:09.214Z,0.97
2022-09-15T08:47:39.234Z,0.78
2022-09-15T08:50:09.263Z,0.54
2022-09-15T08:52:39.305Z,0.67
2022-09-15T08:55:09.290Z,0.79
2022-09-15T08:57:39.328Z,0.73
2022-09-15T09:00:09.342Z,1.06
2022-09-15T09:02:39.426Z,0.75
2022-09-15T09:07:39.419Z,0.5
2022-09-15T09:10:09.441Z,0.75
2022-09-15T09:15:09.487Z,0.69
2022-09-15T09:20:09.522Z,0.51
2022-09-15T09:22:39.590Z,0.41
2022-09-15T09:25:26.176Z,0.34
2022-09-15T09:30:09.628Z,0.55
2022-09-15T09:32:39.643Z,0.58
2022-09-15T09:37:39.681Z,0.47
2022-09-15T09:40:09.809Z,0.57
2022-09-15T09:45:09.770Z,0.59
2022-09-15T09:47:39.777Z,0.77
2022-09-15T09:50:09.815Z,0.62
2022-09-15T09:52:39.847Z,0.59
2022-09-15T09:57:40.782Z,1.58
2022-09-15T10:02:39.943Z,0.67
2022-09-15T10:07:39.964Z,0.61
2022-09-15T10:10:10.007Z,0.53
2022-09-15T10:15:10.049Z,0.53
2022-09-15T10:20:10.086Z,0.64
2022-09-15T10:22:40.162Z,0.46
2022-09-15T10:25:10.134Z,0.52
2022-09-15T10:30:10.193Z,0.49
2022-09-15T10:32:40.215Z,0.51
2022-09-15T10:37:40.261Z,0.54
2022-09-15T10:42:40.310Z,0.72
2022-09-15T10:47:40.341Z,0.49
2022-09-15T10:50:10.392Z,0.69
2022-09-15T10:55:10.406Z,0.57
2022-09-15T11:00:10.497Z,0.57
2022-09-15T11:05:10.513Z,0.52
2022-09-15T11:07:40.531Z,0.76
2022-09-15T11:15:10.612Z,0.63
2022-09-15T11:17:40.632Z,0.71
2022-09-15T11:20:10.659Z,0.57
2022-09-15T11:22:40.682Z,0.56
2022-09-15T11:25:10.708Z,0.72
2022-09-15T11:27:40.711Z,0.74
2022-09-15T11:30:10.754Z,0.62
2022-09-15T11:32:40.773Z,0.57
2022-09-15T11:35:10.813Z,0.51
2022-09-15T11:37:40.840Z,1.26
2022-09-15T11:42:40.877Z,0.77
2022-09-15T11:45:10.899Z,0.83
2022-09-15T11:47:40.921Z,0.79
2022-09-15T11:50:10.941Z,0.71
2022-09-15T11:55:10.974Z,0.63
2022-09-15T11:57:41.010Z,0.59
2022-09-15T12:00:11.016Z,0.65
2022-09-15T12:05:11.174Z,0.9
2022-09-15T12:10:11.151Z,0.76
2022-09-15T12:15:11.180Z,1.11
2022-09-15T12:17:41.193Z,0.99
2022-09-15T12:20:11.223Z,1.03
2022-09-15T12:22:41.233Z,0.85
2022-09-15T12:25:11.255Z,0.65
2022-09-15T12:27:41.279Z,1.04
2022-09-15T12:30:11.319Z,0.87
2022-09-15T12:32:41.327Z,0.97
2022-09-15T12:35:13.600Z,1.3
2022-09-15T12:40:11.437Z,0.78
2022-09-15T12:42:41.436Z,0.63
2022-09-15T12:45:11.444Z,0.76
2022-09-15T12:55:11.530Z,0.67
2022-09-15T12:57:41.566Z,0.76
2022-09-15T13:00:11.584Z,0.63
2022-09-15T13:02:41.657Z,0.68
2022-09-15T13:05:11.644Z,0.51
2022-09-15T13:07:41.643Z,0.47
2022-09-15T13:10:11.672Z,0.52
2022-09-15T13:12:41.692Z,0.52
2022-09-15T13:15:11.745Z,0.4
2022-09-15T13:17:41.766Z,0.58
2022-09-15T13:20:11.776Z,0.6
2022-09-15T13:25:11.836Z,0.89
2022-09-15T13:27:41.856Z,0.79
2022-09-15T13:30:11.874Z,0.67
2022-09-15T13:32:41.914Z,0.63
2022-09-15T13:38:17.115Z,0.86
2022-09-15T13:40:12.043Z,0.68
2022-09-15T13:42:41.973Z,0.62
2022-09-15T13:45:12.019Z,0.59
2022-09-15T13:47:42.026Z,0.74
2022-09-15T13:50:12.057Z,0.57
2022-09-15T13:52:42.084Z,0.6
2022-09-15T14:00:18.227Z,0.8
2022-09-15T14:02:42.319Z,0.79
2022-09-15T14:05:12.203Z,0.9
2022-09-15T14:07:42.225Z,0.82
2022-09-15T14:10:12.266Z,0.69
2022-09-15T14:12:42.269Z,0.64
2022-09-15T14:15:12.293Z,0.64
2022-09-15T14:17:42.314Z,0.57
2022-09-15T14:20:12.353Z,0.54
2022-09-15T14:27:42.414Z,0.66
2022-09-15T14:30:12.437Z,0.61
2022-09-15T14:32:42.456Z,0.82
2022-09-15T14:35:14.915Z,0.81
2022-09-15T14:37:42.478Z,0.66
2022-09-15T14:40:12.657Z,0.58
2022-09-15T14:42:42.547Z,0.78
2022-09-15T14:50:12.609Z,0.6
2022-09-15T14:52:42.628Z,0.64
2022-09-15T14:55:12.663Z,0.56
2022-09-15T15:00:12.717Z,0.58
2022-09-15T15:02:42.767Z,0.63
2022-09-15T15:05:12.763Z,0.48
2022-09-15T15:07:42.773Z,0.66
2022-09-15T15:12:42.823Z,0.62
2022-09-15T15:15:12.859Z,0.52
2022-09-15T15:17:42.910Z,0.93
2022-09-15T15:20:12.905Z,0.65
2022-09-15T15:22:42.929Z,0.6
2022-09-15T15:25:12.941Z,0.53
2022-09-15T15:27:42.972Z,0.84
2022-09-15T15:30:12.989Z,1.44
2022-09-15T15:32:43.019Z,0.98
2022-09-15T15:35:13.034Z,0.83
2022-09-15T15:37:43.071Z,0.6
2022-09-15T15:42:43.101Z,0.72
2022-09-15T15:45:13.140Z,0.62
2022-09-15T15:47:43.149Z,0.84
2022-09-15T15:50:14.185Z,0.67
2022-09-15T15:52:43.201Z,0.59
2022-09-15T15:55:13.251Z,0.49
2022-09-15T15:57:43.264Z,0.59
2022-09-15T16:02:43.298Z,0.82
2022-09-15T16:07:43.343Z,0.69
2022-09-15T16:10:13.380Z,0.57
2022-09-15T16:15:13.419Z,0.55
2022-09-15T16:17:46.630Z,0.59
2022-09-15T16:20:13.459Z,0.72
2022-09-15T16:22:43.487Z,0.69
2022-09-15T16:25:13.515Z,0.7
2022-09-15T16:27:43.540Z,0.66
2022-09-15T16:30:13.556Z,0.85
2022-09-15T16:32:43.601Z,0.7
2022-09-15T16:35:13.617Z,0.75
2022-09-15T16:37:43.625Z,0.53
2022-09-15T16:42:43.693Z,0.56
2022-09-15T16:45:13.695Z,0.65
2022-09-15T16:47:43.757Z,2.17
2022-09-15T16:52:43.766Z,0.97
2022-09-15T16:55:13.807Z,0.97
2022-09-15T17:00:13.855Z,0.9
2022-09-15T17:02:43.876Z,0.99
2022-09-15T17:05:13.909Z,0.86
2022-09-15T17:07:43.913Z,0.8
2022-09-15T17:10:13.936Z,0.71
2022-09-15T17:12:43.958Z,0.78
2022-09-15T17:15:14.003Z,0.72
2022-09-15T17:17:44.029Z,0.86
2022-09-15T17:20:14.051Z,0.88
2022-09-15T17:22:44.051Z,0.6
2022-09-15T17:25:14.092Z,0.85
2022-09-15T17:27:44.119Z,0.76
2022-09-15T17:30:14.148Z,0.75
2022-09-15T17:32:44.178Z,0.65
2022-09-15T17:37:44.200Z,0.58
2022-09-15T17:40:14.239Z,0.54
2022-09-15T17:42:44.234Z,0.68
2022-09-15T17:45:14.261Z,0.58
2022-09-15T17:47:44.285Z,0.65
2022-09-15T17:50:14.307Z,0.56
2022-09-15T17:52:44.336Z,0.71
2022-09-15T17:55:14.361Z,0.63
2022-09-15T17:57:44.382Z,0.64
2022-09-15T18:00:14.410Z,0.69
2022-09-15T18:02:44.452Z,0.68
2022-09-15T18:05:14.472Z,0.66
2022-09-15T18:07:44.476Z,0.54
2022-09-15T18:10:14.510Z,0.58
2022-09-15T18:12:47.366Z,0.56
2022-09-15T18:15:14.551Z,0.7
2022-09-15T18:17:44.575Z,1.44
2022-09-15T18:20:14.602Z,1.03
2022-09-15T18:22:44.620Z,0.77
2022-09-15T18:25:14.655Z,0.62
2022-09-15T18:27:44.673Z,0.62
2022-09-15T18:30:14.698Z,0.76
2022-09-15T18:32:44.728Z,0.59
2022-09-15T18:35:18.369Z,0.48
2022-09-15T18:40:14.843Z,0.63
2022-09-15T18:42:44.819Z,0.88
2022-09-15T18:47:44.858Z,1.03
2022-09-15T18:52:44.918Z,0.71
2022-09-15T18:55:14.932Z,0.68
2022-09-15T18:57:44.946Z,0.61
2022-09-15T19:02:45.012Z,0.44
2022-09-15T19:05:15.025Z,0.71
2022-09-15T19:10:15.064Z,0.81
2022-09-15T19:12:45.109Z,0.7
2022-09-15T19:17:45.164Z,0.47
2022-09-15T19:22:45.190Z,0.48
2022-09-15T19:25:15.234Z,0.47
2022-09-15T19:30:15.260Z,0.53
2022-09-15T19:32:45.285Z,0.57
2022-09-15T19:35:15.317Z,0.77
2022-09-15T19:37:45.345Z,0.71
2022-09-15T19:40:15.407Z,0.65
2022-09-15T19:42:45.374Z,0.5
2022-09-15T19:47:45.435Z,0.54
2022-09-15T19:52:45.521Z,0.81
2022-09-15T19:55:15.509Z,0.93
2022-09-15T19:57:45.515Z,0.92
2022-09-15T20:02:45.612Z,0.79
2022-09-15T20:10:15.627Z,0.58
2022-09-15T20:17:45.698Z,0.67
2022-09-15T20:20:15.726Z,0.58
2022-09-15T20:22:45.754Z,0.49
2022-09-15T20:27:45.818Z,0.42
2022-09-15T20:30:20.893Z,0.42
2022-09-15T20:47:46.020Z,0.44
2022-09-15T20:55:16.073Z,0.41
2022-09-15T20:57:46.103Z,0.49
2022-09-15T21:00:16.141Z,0.7
2022-09-15T21:05:16.170Z,0.72
2022-09-15T21:07:46.190Z,0.72
2022-09-15T21:10:16.219Z,0.69
2022-09-15T21:12:46.235Z,0.58
2022-09-15T21:17:46.277Z,0.62
2022-09-15T21:22:46.329Z,0.57
2022-09-15T21:30:16.394Z,0.45
2022-09-15T21:40:16.548Z,0.59
2022-09-15T21:42:46.519Z,0.56
2022-09-15T21:47:46.576Z,0.37
2022-09-15T21:50:16.590Z,0.68
2022-09-15T21:52:46.606Z,0.6
2022-09-15T21:55:16.653Z,0.55
2022-09-15T21:57:46.650Z,0.63
2022-09-15T22:00:16.715Z,0.54
2022-09-15T22:02:46.714Z,0.64
2022-09-15T22:15:16.827Z,0.49
2022-09-15T22:17:46.851Z,0.48
2022-09-15T22:20:16.854Z,0.46
2022-09-15T22:22:46.881Z,0.76
2022-09-15T22:32:46.987Z,0.5
2022-09-15T22:35:17.000Z,0.43
2022-09-15T22:37:47.029Z,0.33
2022-09-15T22:42:47.097Z,0.43
2022-09-15T22:52:47.190Z,0.52
2022-09-15T22:57:47.228Z,0.69
2022-09-15T23:00:17.256Z,0.67
2022-09-15T23:05:17.275Z,0.7
2022-09-15T23:07:47.317Z,0.77
2022-09-15T23:10:17.334Z,0.67
2022-09-15T23:12:47.352Z,0.65
2022-09-15T23:15:17.393Z,0.54
2022-09-15T23:17:47.415Z,0.55
2022-09-15T23:20:17.456Z,2.01
2022-09-15T23:25:17.489Z,1.22
2022-09-15T23:27:47.509Z,0.95
2022-09-15T23:32:47.543Z,0.99
2022-09-15T23:35:17.570Z,0.79
2022-09-15T23:37:47.592Z,0.94
2022-09-15T23:47:47.700Z,1.69
2022-09-15T23:50:17.719Z,1.45
2022-09-15T23:52:47.721Z,1.15
2022-09-15T23:55:17.769Z,1.18
2022-09-15T23:57:47.771Z,1.14
